Norfolk Downs, Massachusetts
Current Conditions -  °F | °C
As of 6:29 PM on Monday 22 Dec 2014 (Local Time) from KBOS Reporting Station
Overcast Overcast  
Wind Chill: 36°   Ceiling: 4200
Heat Index: 39°   Visibility: 10mi
Dew Point: 39°   Wind: 5mph
Humidity: 100%   Direction: 10°N
Pressure: 30.33"   Gusts: NA
Location:  42.2866°N, 71.0248°W
Report Text: KBOS 222329Z 01004KT 10SM FEW020 BKN042 OVC050 04/04 A3033 RMK AO2 RAE14 P0000
Loading
Personal Weather Stations






























Interactive Weather Map New forecast layout! Learn more

10-Day Weather Forecast

Advertisements
Track Severe Weather on mobile